Etusivu
METAR-TAF:

METAR-TAF

Lentoasemat :

Porto Alegre, Rio Grande do Sul, Brasilia

Leveyspiiri: 30-00S, Pituuspiiri: 051-11W, korkeus merenpinnasta: 3 m

Tämänhetkinen sää

Tämä raportti tehtiin 43 minuuttia sitten, kello 00.00 UTC
Tuuli 7 kn idästä/kaakosta
Lämpötila 14°C
Kosteus 88%
Ilmanpaine 1019 hPa
Näkyvyys 10 km tai enemmän
ei pilviä alle 1500 m:ssä eikä cumulonimbus-pilviä

METAR: SBPA 230000Z 11007KT CAVOK 14/12 Q1019

Aika: 21:43 (00:43 UTC)

Sääennuste

Tämä raportti tehtiin 2 tuntia ja 43 minuuttia sitten, kello 22.00 UTC
Ennuste voimassa 23. päivästä klo 00 UTC - 23. päivään klo 24 UTC
Tuuli 6 kn idästä
Näkyvyys 10 km tai enemmän
ei pilviä alle 1500 m:ssä eikä cumulonimbus-pilviä
Todennäköisyys 30%
23. päivästä klo 07 UTC - 23. päivään klo 11 UTC
Näkyvyys: 3000 m
utua

TAF: SBPA 222200Z 2300/2324 10006KT CAVOK TN10/2309Z TX25/2318Z PROB30 2307/2311 3000 BR NSC RMK PER

Säähavainnot ja -ennusteet yli 4000 lentoasemalta (METAR- ja TAF-raportit).

Käytössä olevat sääasemat on merkitty karttaan keltaisilla ja punaisilla pisteillä.

Aseta hiiri pisteen päälle nähdäksesi sääaseman nimen.

Klikkaa sitten nähdäksesi säähavainnot ja -ennusteet.

Kartan vaihtaminen: klikkaa mustalla rastilla varustettuja vihreitä pisteitä, niin voit zoomata sisään; viivalla varustettua vihreää pistettä, niin voit zoomata ulos tai vihreitä nuolia, niin pääset viereisille kartoille.


METAR-TAF: